sensor_id;sensor_type;location;lat;lon;timestamp;temperature;humidity
25342;DHT22;13298;48.792;9.154;2023-12-29T00:01:57;8.10;99.90
25342;DHT22;13298;48.792;9.154;2023-12-29T00:04:25;8.20;99.90
25342;DHT22;13298;48.792;9.154;2023-12-29T00:06:51;8.30;99.90
25342;DHT22;13298;48.792;9.154;2023-12-29T00:09:16;8.30;99.90
25342;DHT22;13298;48.792;9.154;2023-12-29T00:11:49;8.20;99.90
25342;DHT22;13298;48.792;9.154;2023-12-29T00:14:15;8.20;99.90
25342;DHT22;13298;48.792;9.154;2023-12-29T00:16:41;8.20;99.90
25342;DHT22;13298;48.792;9.154;2023-12-29T00:19:07;8.30;99.90
25342;DHT22;13298;48.792;9.154;2023-12-29T00:21:32;8.30;99.90
25342;DHT22;13298;48.792;9.154;2023-12-29T00:23:58;8.30;99.90
25342;DHT22;13298;48.792;9.154;2023-12-29T00:26:24;8.40;99.90
25342;DHT22;13298;48.792;9.154;2023-12-29T00:28:50;8.40;99.90
25342;DHT22;13298;48.792;9.154;2023-12-29T00:31:16;8.30;99.90
25342;DHT22;13298;48.792;9.154;2023-12-29T00:33:43;8.30;99.90
25342;DHT22;13298;48.792;9.154;2023-12-29T00:36:15;8.20;99.90
25342;DHT22;13298;48.792;9.154;2023-12-29T00:38:41;8.20;99.90
25342;DHT22;13298;48.792;9.154;2023-12-29T00:41:07;8.20;99.90
25342;DHT22;13298;48.792;9.154;2023-12-29T00:43:33;8.20;99.90
25342;DHT22;13298;48.792;9.154;2023-12-29T00:46:01;8.20;99.90
25342;DHT22;13298;48.792;9.154;2023-12-29T00:48:27;8.30;99.90
25342;DHT22;13298;48.792;9.154;2023-12-29T00:50:53;8.20;99.90
25342;DHT22;13298;48.792;9.154;2023-12-29T00:53:19;8.20;99.90
25342;DHT22;13298;48.792;9.154;2023-12-29T00:55:44;8.30;99.90
25342;DHT22;13298;48.792;9.154;2023-12-29T00:58:10;8.30;99.90
25342;DHT22;13298;48.792;9.154;2023-12-29T01:00:36;8.30;99.90
25342;DHT22;13298;48.792;9.154;2023-12-29T01:03:01;8.40;99.90
25342;DHT22;13298;48.792;9.154;2023-12-29T01:05:27;8.40;99.90
25342;DHT22;13298;48.792;9.154;2023-12-29T01:07:53;8.50;99.90
25342;DHT22;13298;48.792;9.154;2023-12-29T01:10:19;8.60;99.90
25342;DHT22;13298;48.792;9.154;2023-12-29T01:12:45;8.60;99.90
25342;DHT22;13298;48.792;9.154;2023-12-29T01:15:11;8.70;99.90
25342;DHT22;13298;48.792;9.154;2023-12-29T01:17:36;8.70;99.90
25342;DHT22;13298;48.792;9.154;2023-12-29T01:20:02;8.70;99.90
25342;DHT22;13298;48.792;9.154;2023-12-29T01:22:29;8.70;99.90
25342;DHT22;13298;48.792;9.154;2023-12-29T01:24:55;8.80;99.90
25342;DHT22;13298;48.792;9.154;2023-12-29T01:27:21;8.80;99.90
25342;DHT22;13298;48.792;9.154;2023-12-29T01:29:46;8.80;99.90
25342;DHT22;13298;48.792;9.154;2023-12-29T01:32:12;8.80;99.90
25342;DHT22;13298;48.792;9.154;2023-12-29T01:34:38;8.80;99.90
25342;DHT22;13298;48.792;9.154;2023-12-29T01:37:04;8.80;99.90
25342;DHT22;13298;48.792;9.154;2023-12-29T01:39:30;8.80;99.90
25342;DHT22;13298;48.792;9.154;2023-12-29T01:41:56;8.80;99.90
25342;DHT22;13298;48.792;9.154;2023-12-29T01:44:22;8.80;99.90
25342;DHT22;13298;48.792;9.154;2023-12-29T01:46:54;8.90;99.90
25342;DHT22;13298;48.792;9.154;2023-12-29T01:49:20;8.90;99.90
25342;DHT22;13298;48.792;9.154;2023-12-29T01:51:55;9.00;99.90
25342;DHT22;13298;48.792;9.154;2023-12-29T01:54:23;9.00;99.90
25342;DHT22;13298;48.792;9.154;2023-12-29T01:56:54;9.00;99.90
25342;DHT22;13298;48.792;9.154;2023-12-29T01:59:25;9.00;99.90
25342;DHT22;13298;48.792;9.154;2023-12-29T02:01:51;9.10;99.90
25342;DHT22;13298;48.792;9.154;2023-12-29T02:04:17;9.10;99.90
25342;DHT22;13298;48.792;9.154;2023-12-29T02:06:43;9.00;99.90
25342;DHT22;13298;48.792;9.154;2023-12-29T02:09:09;9.00;99.90
25342;DHT22;13298;48.792;9.154;2023-12-29T02:11:35;9.00;99.90
25342;DHT22;13298;48.792;9.154;2023-12-29T02:14:01;9.00;99.90
25342;DHT22;13298;48.792;9.154;2023-12-29T02:16:37;9.00;99.90
25342;DHT22;13298;48.792;9.154;2023-12-29T02:19:18;9.00;99.90
25342;DHT22;13298;48.792;9.154;2023-12-29T02:21:54;9.10;99.90
25342;DHT22;13298;48.792;9.154;2023-12-29T02:24:20;9.10;99.90
25342;DHT22;13298;48.792;9.154;2023-12-29T02:26:49;9.10;99.90
25342;DHT22;13298;48.792;9.154;2023-12-29T02:29:20;9.10;99.90
25342;DHT22;13298;48.792;9.154;2023-12-29T02:31:49;9.10;99.90
25342;DHT22;13298;48.792;9.154;2023-12-29T02:34:17;9.10;99.90
25342;DHT22;13298;48.792;9.154;2023-12-29T02:36:44;9.20;99.90
25342;DHT22;13298;48.792;9.154;2023-12-29T02:39:10;9.20;99.90
25342;DHT22;13298;48.792;9.154;2023-12-29T02:41:38;9.20;99.90
25342;DHT22;13298;48.792;9.154;2023-12-29T02:44:04;9.20;99.90
25342;DHT22;13298;48.792;9.154;2023-12-29T02:46:30;9.20;99.90
25342;DHT22;13298;48.792;9.154;2023-12-29T02:48:56;9.20;99.90
25342;DHT22;13298;48.792;9.154;2023-12-29T02:51:22;9.20;99.90
25342;DHT22;13298;48.792;9.154;2023-12-29T02:53:47;9.20;99.90
25342;DHT22;13298;48.792;9.154;2023-12-29T02:56:14;9.20;99.90
25342;DHT22;13298;48.792;9.154;2023-12-29T02:58:40;9.20;99.90
25342;DHT22;13298;48.792;9.154;2023-12-29T03:01:05;9.20;99.90
25342;DHT22;13298;48.792;9.154;2023-12-29T03:03:31;9.20;99.90
25342;DHT22;13298;48.792;9.154;2023-12-29T03:05:57;9.10;99.90
25342;DHT22;13298;48.792;9.154;2023-12-29T03:08:23;9.10;99.90
25342;DHT22;13298;48.792;9.154;2023-12-29T03:10:48;9.10;99.90
25342;DHT22;13298;48.792;9.154;2023-12-29T03:13:14;9.10;99.90
25342;DHT22;13298;48.792;9.154;2023-12-29T03:15:40;9.00;99.90
25342;DHT22;13298;48.792;9.154;2023-12-29T03:18:05;9.00;99.90
25342;DHT22;13298;48.792;9.154;2023-12-29T03:20:31;8.90;99.90
25342;DHT22;13298;48.792;9.154;2023-12-29T03:22:57;8.90;99.90
25342;DHT22;13298;48.792;9.154;2023-12-29T03:25:22;8.80;99.90
25342;DHT22;13298;48.792;9.154;2023-12-29T03:27:48;8.80;99.90
25342;DHT22;13298;48.792;9.154;2023-12-29T03:30:14;8.80;99.90
25342;DHT22;13298;48.792;9.154;2023-12-29T03:32:40;8.70;99.90
25342;DHT22;13298;48.792;9.154;2023-12-29T03:35:06;8.60;99.90
25342;DHT22;13298;48.792;9.154;2023-12-29T03:40:51;8.40;99.90
25342;DHT22;13298;48.792;9.154;2023-12-29T03:43:16;8.20;99.90
25342;DHT22;13298;48.792;9.154;2023-12-29T03:45:42;8.10;99.90
25342;DHT22;13298;48.792;9.154;2023-12-29T03:48:08;8.10;99.90
25342;DHT22;13298;48.792;9.154;2023-12-29T03:50:34;8.00;99.90
25342;DHT22;13298;48.792;9.154;2023-12-29T03:53:00;8.00;99.90
25342;DHT22;13298;48.792;9.154;2023-12-29T03:55:26;8.10;99.90
25342;DHT22;13298;48.792;9.154;2023-12-29T03:57:51;8.10;99.90
25342;DHT22;13298;48.792;9.154;2023-12-29T04:00:17;8.20;99.90
25342;DHT22;13298;48.792;9.154;2023-12-29T04:02:43;8.20;99.90
25342;DHT22;13298;48.792;9.154;2023-12-29T04:05:09;8.20;99.90
25342;DHT22;13298;48.792;9.154;2023-12-29T04:07:36;8.20;99.90
25342;DHT22;13298;48.792;9.154;2023-12-29T04:10:01;8.30;99.90
25342;DHT22;13298;48.792;9.154;2023-12-29T04:12:29;8.30;99.90
25342;DHT22;13298;48.792;9.154;2023-12-29T04:14:54;8.40;99.90
25342;DHT22;13298;48.792;9.154;2023-12-29T04:17:20;8.50;99.90
25342;DHT22;13298;48.792;9.154;2023-12-29T04:19:45;8.50;99.90
25342;DHT22;13298;48.792;9.154;2023-12-29T04:22:11;8.50;99.90
25342;DHT22;13298;48.792;9.154;2023-12-29T04:24:37;8.50;99.90
25342;DHT22;13298;48.792;9.154;2023-12-29T04:27:03;8.40;99.90
25342;DHT22;13298;48.792;9.154;2023-12-29T04:29:30;8.40;99.90
25342;DHT22;13298;48.792;9.154;2023-12-29T04:31:55;8.40;99.90
25342;DHT22;13298;48.792;9.154;2023-12-29T04:34:21;8.30;99.90
25342;DHT22;13298;48.792;9.154;2023-12-29T04:36:47;8.30;99.90
25342;DHT22;13298;48.792;9.154;2023-12-29T04:39:12;8.30;99.90
25342;DHT22;13298;48.792;9.154;2023-12-29T04:41:38;8.30;99.90
25342;DHT22;13298;48.792;9.154;2023-12-29T04:44:04;8.20;99.90
25342;DHT22;13298;48.792;9.154;2023-12-29T04:46:30;8.20;99.90
25342;DHT22;13298;48.792;9.154;2023-12-29T04:48:55;8.10;99.90
25342;DHT22;13298;48.792;9.154;2023-12-29T04:51:21;8.20;99.90
25342;DHT22;13298;48.792;9.154;2023-12-29T04:53:47;8.20;99.90
25342;DHT22;13298;48.792;9.154;2023-12-29T04:56:12;8.30;99.90
25342;DHT22;13298;48.792;9.154;2023-12-29T04:58:38;8.30;99.90
25342;DHT22;13298;48.792;9.154;2023-12-29T05:01:04;8.30;99.90
25342;DHT22;13298;48.792;9.154;2023-12-29T05:03:29;8.30;99.90
25342;DHT22;13298;48.792;9.154;2023-12-29T05:05:55;8.40;99.90
25342;DHT22;13298;48.792;9.154;2023-12-29T05:08:21;8.40;99.90
25342;DHT22;13298;48.792;9.154;2023-12-29T05:10:47;8.40;99.90
25342;DHT22;13298;48.792;9.154;2023-12-29T05:13:13;8.40;99.90
25342;DHT22;13298;48.792;9.154;2023-12-29T05:15:39;8.40;99.90
25342;DHT22;13298;48.792;9.154;2023-12-29T05:18:04;8.40;99.90
25342;DHT22;13298;48.792;9.154;2023-12-29T05:20:31;8.40;99.90
25342;DHT22;13298;48.792;9.154;2023-12-29T05:22:56;8.50;99.90
25342;DHT22;13298;48.792;9.154;2023-12-29T05:25:22;8.50;99.90
25342;DHT22;13298;48.792;9.154;2023-12-29T05:27:49;8.50;99.90
25342;DHT22;13298;48.792;9.154;2023-12-29T05:30:15;8.50;99.90
25342;DHT22;13298;48.792;9.154;2023-12-29T05:32:41;8.50;99.90
25342;DHT22;13298;48.792;9.154;2023-12-29T05:35:07;8.40;99.90
25342;DHT22;13298;48.792;9.154;2023-12-29T05:37:33;8.50;99.90
25342;DHT22;13298;48.792;9.154;2023-12-29T05:39:59;8.30;99.90
25342;DHT22;13298;48.792;9.154;2023-12-29T05:42:24;8.30;99.90
25342;DHT22;13298;48.792;9.154;2023-12-29T05:44:50;8.30;99.90
25342;DHT22;13298;48.792;9.154;2023-12-29T05:47:17;8.30;99.90
25342;DHT22;13298;48.792;9.154;2023-12-29T05:49:43;8.30;99.90
25342;DHT22;13298;48.792;9.154;2023-12-29T05:52:09;8.30;99.90
25342;DHT22;13298;48.792;9.154;2023-12-29T05:54:35;8.30;99.90
25342;DHT22;13298;48.792;9.154;2023-12-29T05:57:01;8.30;99.90
25342;DHT22;13298;48.792;9.154;2023-12-29T05:59:27;8.30;99.90
25342;DHT22;13298;48.792;9.154;2023-12-29T06:01:52;8.20;99.90
25342;DHT22;13298;48.792;9.154;2023-12-29T06:04:18;8.20;99.90
25342;DHT22;13298;48.792;9.154;2023-12-29T06:06:44;8.10;99.90
25342;DHT22;13298;48.792;9.154;2023-12-29T06:09:11;8.10;99.90
25342;DHT22;13298;48.792;9.154;2023-12-29T06:11:37;8.10;99.90
25342;DHT22;13298;48.792;9.154;2023-12-29T06:14:03;8.10;99.90
25342;DHT22;13298;48.792;9.154;2023-12-29T06:16:29;8.10;99.90
25342;DHT22;13298;48.792;9.154;2023-12-29T06:18:55;8.10;99.90
25342;DHT22;13298;48.792;9.154;2023-12-29T06:21:21;8.10;99.90
25342;DHT22;13298;48.792;9.154;2023-12-29T06:23:47;8.10;99.90
25342;DHT22;13298;48.792;9.154;2023-12-29T06:26:17;8.00;99.90
25342;DHT22;13298;48.792;9.154;2023-12-29T06:28:45;7.90;99.90
25342;DHT22;13298;48.792;9.154;2023-12-29T06:31:11;7.80;99.90
25342;DHT22;13298;48.792;9.154;2023-12-29T06:33:40;7.70;99.90
25342;DHT22;13298;48.792;9.154;2023-12-29T06:36:07;7.60;99.90
25342;DHT22;13298;48.792;9.154;2023-12-29T06:38:33;7.50;99.90
25342;DHT22;13298;48.792;9.154;2023-12-29T06:41:01;7.50;99.90
25342;DHT22;13298;48.792;9.154;2023-12-29T06:43:27;7.50;99.90
25342;DHT22;13298;48.792;9.154;2023-12-29T06:45:53;7.60;99.90
25342;DHT22;13298;48.792;9.154;2023-12-29T06:48:19;7.60;99.90
25342;DHT22;13298;48.792;9.154;2023-12-29T06:50:45;7.50;99.90
25342;DHT22;13298;48.792;9.154;2023-12-29T06:53:11;7.50;99.90
25342;DHT22;13298;48.792;9.154;2023-12-29T06:55:37;7.50;99.90
25342;DHT22;13298;48.792;9.154;2023-12-29T06:58:04;7.50;99.90
25342;DHT22;13298;48.792;9.154;2023-12-29T07:00:29;7.60;99.90
25342;DHT22;13298;48.792;9.154;2023-12-29T07:02:55;7.70;99.90
25342;DHT22;13298;48.792;9.154;2023-12-29T07:05:21;7.80;99.90
25342;DHT22;13298;48.792;9.154;2023-12-29T07:07:46;7.80;99.90
25342;DHT22;13298;48.792;9.154;2023-12-29T07:10:13;7.90;99.90
25342;DHT22;13298;48.792;9.154;2023-12-29T07:12:42;8.00;99.90
25342;DHT22;13298;48.792;9.154;2023-12-29T07:15:08;8.10;99.90
25342;DHT22;13298;48.792;9.154;2023-12-29T07:17:34;8.20;99.90
25342;DHT22;13298;48.792;9.154;2023-12-29T07:20:00;8.20;99.90
25342;DHT22;13298;48.792;9.154;2023-12-29T07:22:25;8.20;99.90
25342;DHT22;13298;48.792;9.154;2023-12-29T07:24:51;8.20;99.90
25342;DHT22;13298;48.792;9.154;2023-12-29T07:27:17;8.20;99.90
25342;DHT22;13298;48.792;9.154;2023-12-29T07:29:43;8.20;99.90
25342;DHT22;13298;48.792;9.154;2023-12-29T07:32:08;8.10;99.90
25342;DHT22;13298;48.792;9.154;2023-12-29T07:34:34;8.10;99.90
25342;DHT22;13298;48.792;9.154;2023-12-29T07:37:00;8.00;99.90
25342;DHT22;13298;48.792;9.154;2023-12-29T07:39:25;8.10;99.90
25342;DHT22;13298;48.792;9.154;2023-12-29T07:41:51;8.00;99.90
25342;DHT22;13298;48.792;9.154;2023-12-29T07:44:17;8.10;99.90
25342;DHT22;13298;48.792;9.154;2023-12-29T07:46:43;8.10;99.90
25342;DHT22;13298;48.792;9.154;2023-12-29T07:49:10;8.10;99.90
25342;DHT22;13298;48.792;9.154;2023-12-29T07:51:42;8.20;99.90
25342;DHT22;13298;48.792;9.154;2023-12-29T07:54:10;8.20;99.90
25342;DHT22;13298;48.792;9.154;2023-12-29T07:56:35;8.30;99.90
25342;DHT22;13298;48.792;9.154;2023-12-29T07:59:03;8.40;99.90
25342;DHT22;13298;48.792;9.154;2023-12-29T08:01:29;8.40;99.90
25342;DHT22;13298;48.792;9.154;2023-12-29T08:03:55;8.50;99.90
25342;DHT22;13298;48.792;9.154;2023-12-29T08:06:20;8.60;99.90
25342;DHT22;13298;48.792;9.154;2023-12-29T08:08:46;8.60;99.90
25342;DHT22;13298;48.792;9.154;2023-12-29T08:11:16;8.70;99.90
25342;DHT22;13298;48.792;9.154;2023-12-29T08:13:44;8.80;99.90
25342;DHT22;13298;48.792;9.154;2023-12-29T08:16:10;8.80;99.90
25342;DHT22;13298;48.792;9.154;2023-12-29T08:18:36;8.80;99.90
25342;DHT22;13298;48.792;9.154;2023-12-29T08:21:02;8.90;99.90
25342;DHT22;13298;48.792;9.154;2023-12-29T08:23:28;8.90;99.90
25342;DHT22;13298;48.792;9.154;2023-12-29T08:25:55;8.90;99.90
25342;DHT22;13298;48.792;9.154;2023-12-29T08:28:22;9.00;99.90
25342;DHT22;13298;48.792;9.154;2023-12-29T08:30:47;9.00;99.90
25342;DHT22;13298;48.792;9.154;2023-12-29T08:33:13;9.00;99.90
25342;DHT22;13298;48.792;9.154;2023-12-29T08:35:40;9.00;99.90
25342;DHT22;13298;48.792;9.154;2023-12-29T08:38:06;9.10;99.90
25342;DHT22;13298;48.792;9.154;2023-12-29T08:40:32;9.10;99.90
25342;DHT22;13298;48.792;9.154;2023-12-29T08:42:57;9.20;99.90
25342;DHT22;13298;48.792;9.154;2023-12-29T08:45:23;9.20;99.90
25342;DHT22;13298;48.792;9.154;2023-12-29T08:47:49;9.20;99.90
25342;DHT22;13298;48.792;9.154;2023-12-29T08:50:15;9.20;99.90
25342;DHT22;13298;48.792;9.154;2023-12-29T08:52:41;9.20;99.90
25342;DHT22;13298;48.792;9.154;2023-12-29T08:55:07;9.20;99.90
25342;DHT22;13298;48.792;9.154;2023-12-29T08:57:33;9.20;99.90
25342;DHT22;13298;48.792;9.154;2023-12-29T08:59:59;9.20;99.90
25342;DHT22;13298;48.792;9.154;2023-12-29T09:02:25;9.20;99.90
25342;DHT22;13298;48.792;9.154;2023-12-29T09:04:51;9.20;99.90
25342;DHT22;13298;48.792;9.154;2023-12-29T09:07:16;9.20;99.90
25342;DHT22;13298;48.792;9.154;2023-12-29T09:09:42;9.20;99.90
25342;DHT22;13298;48.792;9.154;2023-12-29T09:12:08;9.20;99.90
25342;DHT22;13298;48.792;9.154;2023-12-29T09:14:34;9.30;99.90
25342;DHT22;13298;48.792;9.154;2023-12-29T09:17:00;9.30;99.90
25342;DHT22;13298;48.792;9.154;2023-12-29T09:19:26;9.40;99.90
25342;DHT22;13298;48.792;9.154;2023-12-29T09:21:52;9.50;99.90
25342;DHT22;13298;48.792;9.154;2023-12-29T09:24:17;9.50;99.90
25342;DHT22;13298;48.792;9.154;2023-12-29T09:26:43;9.60;99.90
25342;DHT22;13298;48.792;9.154;2023-12-29T09:29:09;9.60;99.90
25342;DHT22;13298;48.792;9.154;2023-12-29T09:31:35;9.70;99.90
25342;DHT22;13298;48.792;9.154;2023-12-29T09:34:01;9.80;99.90
25342;DHT22;13298;48.792;9.154;2023-12-29T09:36:27;9.90;99.90
25342;DHT22;13298;48.792;9.154;2023-12-29T09:38:53;9.90;99.90
25342;DHT22;13298;48.792;9.154;2023-12-29T09:41:20;9.90;99.90
25342;DHT22;13298;48.792;9.154;2023-12-29T09:43:49;9.90;99.90
25342;DHT22;13298;48.792;9.154;2023-12-29T09:46:17;9.80;99.90
25342;DHT22;13298;48.792;9.154;2023-12-29T09:48:46;9.80;99.90
25342;DHT22;13298;48.792;9.154;2023-12-29T09:51:13;9.80;99.90
25342;DHT22;13298;48.792;9.154;2023-12-29T09:53:40;9.80;99.90
25342;DHT22;13298;48.792;9.154;2023-12-29T09:56:08;9.80;99.90
25342;DHT22;13298;48.792;9.154;2023-12-29T09:58:34;9.80;99.90
25342;DHT22;13298;48.792;9.154;2023-12-29T10:01:04;9.80;99.90
25342;DHT22;13298;48.792;9.154;2023-12-29T10:03:33;9.90;99.90
25342;DHT22;13298;48.792;9.154;2023-12-29T10:06:00;10.00;99.90
25342;DHT22;13298;48.792;9.154;2023-12-29T10:08:29;10.00;99.90
25342;DHT22;13298;48.792;9.154;2023-12-29T10:11:00;10.00;99.90
25342;DHT22;13298;48.792;9.154;2023-12-29T10:13:29;10.00;99.90
25342;DHT22;13298;48.792;9.154;2023-12-29T10:16:07;9.90;99.90
25342;DHT22;13298;48.792;9.154;2023-12-29T10:18:44;10.00;99.90
25342;DHT22;13298;48.792;9.154;2023-12-29T10:21:20;10.00;99.90
25342;DHT22;13298;48.792;9.154;2023-12-29T10:26:29;10.10;99.90
25342;DHT22;13298;48.792;9.154;2023-12-29T10:28:56;10.10;99.90
25342;DHT22;13298;48.792;9.154;2023-12-29T10:31:22;10.10;99.90
25342;DHT22;13298;48.792;9.154;2023-12-29T10:33:48;10.10;99.90
25342;DHT22;13298;48.792;9.154;2023-12-29T10:36:16;10.10;99.90
25342;DHT22;13298;48.792;9.154;2023-12-29T10:38:42;10.10;99.90
25342;DHT22;13298;48.792;9.154;2023-12-29T10:41:16;10.00;99.90
25342;DHT22;13298;48.792;9.154;2023-12-29T10:43:44;10.00;99.90
25342;DHT22;13298;48.792;9.154;2023-12-29T10:46:12;10.10;99.90
25342;DHT22;13298;48.792;9.154;2023-12-29T10:48:39;10.00;99.90
25342;DHT22;13298;48.792;9.154;2023-12-29T10:51:05;10.00;99.90
25342;DHT22;13298;48.792;9.154;2023-12-29T10:53:35;10.00;99.90
25342;DHT22;13298;48.792;9.154;2023-12-29T10:56:01;10.00;99.90
25342;DHT22;13298;48.792;9.154;2023-12-29T10:58:28;10.00;99.90
25342;DHT22;13298;48.792;9.154;2023-12-29T11:00:55;10.00;99.90
25342;DHT22;13298;48.792;9.154;2023-12-29T11:03:21;10.00;99.90
25342;DHT22;13298;48.792;9.154;2023-12-29T11:05:47;10.00;99.90
25342;DHT22;13298;48.792;9.154;2023-12-29T11:08:17;10.00;99.90
25342;DHT22;13298;48.792;9.154;2023-12-29T11:10:45;10.00;99.90
25342;DHT22;13298;48.792;9.154;2023-12-29T11:13:12;10.00;99.90
25342;DHT22;13298;48.792;9.154;2023-12-29T11:15:42;10.10;99.90
25342;DHT22;13298;48.792;9.154;2023-12-29T11:18:13;10.10;99.90
25342;DHT22;13298;48.792;9.154;2023-12-29T11:20:39;10.10;99.90
25342;DHT22;13298;48.792;9.154;2023-12-29T11:23:06;10.10;99.90
25342;DHT22;13298;48.792;9.154;2023-12-29T11:25:34;10.10;99.90
25342;DHT22;13298;48.792;9.154;2023-12-29T11:28:00;10.10;99.90
25342;DHT22;13298;48.792;9.154;2023-12-29T11:30:27;10.20;99.90
25342;DHT22;13298;48.792;9.154;2023-12-29T11:33:06;10.20;99.90
25342;DHT22;13298;48.792;9.154;2023-12-29T11:38:45;10.30;99.90
25342;DHT22;13298;48.792;9.154;2023-12-29T11:41:55;10.40;99.90
25342;DHT22;13298;48.792;9.154;2023-12-29T11:44:26;10.40;99.90
25342;DHT22;13298;48.792;9.154;2023-12-29T11:46:53;10.50;99.90
25342;DHT22;13298;48.792;9.154;2023-12-29T11:49:19;10.40;99.90
25342;DHT22;13298;48.792;9.154;2023-12-29T11:51:49;10.40;99.90
25342;DHT22;13298;48.792;9.154;2023-12-29T11:54:23;10.50;99.90
25342;DHT22;13298;48.792;9.154;2023-12-29T11:56:49;10.50;99.90
25342;DHT22;13298;48.792;9.154;2023-12-29T11:59:16;10.60;99.90
25342;DHT22;13298;48.792;9.154;2023-12-29T12:01:55;10.60;99.90
25342;DHT22;13298;48.792;9.154;2023-12-29T12:04:40;10.60;99.90
25342;DHT22;13298;48.792;9.154;2023-12-29T12:09:50;10.70;99.90
25342;DHT22;13298;48.792;9.154;2023-12-29T12:12:40;10.70;99.90
25342;DHT22;13298;48.792;9.154;2023-12-29T12:18:01;10.60;99.90
25342;DHT22;13298;48.792;9.154;2023-12-29T12:20:33;10.60;99.90
25342;DHT22;13298;48.792;9.154;2023-12-29T12:23:01;10.70;99.90
25342;DHT22;13298;48.792;9.154;2023-12-29T12:25:31;10.80;99.90
25342;DHT22;13298;48.792;9.154;2023-12-29T12:28:01;10.80;99.90
25342;DHT22;13298;48.792;9.154;2023-12-29T12:30:29;11.00;99.90
25342;DHT22;13298;48.792;9.154;2023-12-29T12:32:58;11.00;99.90
25342;DHT22;13298;48.792;9.154;2023-12-29T12:35:28;11.10;99.90
25342;DHT22;13298;48.792;9.154;2023-12-29T12:38:26;11.30;99.90
25342;DHT22;13298;48.792;9.154;2023-12-29T12:40:56;11.50;99.90
25342;DHT22;13298;48.792;9.154;2023-12-29T12:43:24;11.70;99.90
25342;DHT22;13298;48.792;9.154;2023-12-29T12:45:54;11.80;99.90
25342;DHT22;13298;48.792;9.154;2023-12-29T12:48:23;12.00;99.90
25342;DHT22;13298;48.792;9.154;2023-12-29T12:50:53;12.10;99.90
25342;DHT22;13298;48.792;9.154;2023-12-29T12:53:23;12.20;99.90
25342;DHT22;13298;48.792;9.154;2023-12-29T12:55:49;12.20;99.90
25342;DHT22;13298;48.792;9.154;2023-12-29T12:58:19;12.30;99.90
25342;DHT22;13298;48.792;9.154;2023-12-29T13:00:48;12.30;99.90
25342;DHT22;13298;48.792;9.154;2023-12-29T13:03:15;12.20;99.90
25342;DHT22;13298;48.792;9.154;2023-12-29T13:05:42;12.30;99.90
25342;DHT22;13298;48.792;9.154;2023-12-29T13:08:08;12.30;99.90
25342;DHT22;13298;48.792;9.154;2023-12-29T13:10:34;12.20;99.90
25342;DHT22;13298;48.792;9.154;2023-12-29T13:13:05;12.20;99.90
25342;DHT22;13298;48.792;9.154;2023-12-29T13:15:31;12.20;99.90
25342;DHT22;13298;48.792;9.154;2023-12-29T13:17:57;12.10;99.90
25342;DHT22;13298;48.792;9.154;2023-12-29T13:20:22;12.00;99.90
25342;DHT22;13298;48.792;9.154;2023-12-29T13:22:49;11.90;99.90
25342;DHT22;13298;48.792;9.154;2023-12-29T13:25:28;11.80;99.90
25342;DHT22;13298;48.792;9.154;2023-12-29T13:27:54;11.70;99.90
25342;DHT22;13298;48.792;9.154;2023-12-29T13:30:21;11.70;99.90
25342;DHT22;13298;48.792;9.154;2023-12-29T13:32:47;11.60;99.90
25342;DHT22;13298;48.792;9.154;2023-12-29T13:35:34;11.60;99.90
25342;DHT22;13298;48.792;9.154;2023-12-29T13:38:20;11.50;99.90
25342;DHT22;13298;48.792;9.154;2023-12-29T13:41:01;11.50;99.90
25342;DHT22;13298;48.792;9.154;2023-12-29T13:43:30;11.40;99.90
25342;DHT22;13298;48.792;9.154;2023-12-29T13:45:58;11.40;99.90
25342;DHT22;13298;48.792;9.154;2023-12-29T13:48:25;11.30;99.90
25342;DHT22;13298;48.792;9.154;2023-12-29T13:50:51;11.30;99.90
25342;DHT22;13298;48.792;9.154;2023-12-29T13:53:18;11.20;99.90
25342;DHT22;13298;48.792;9.154;2023-12-29T13:55:44;11.20;99.90
25342;DHT22;13298;48.792;9.154;2023-12-29T13:58:10;11.20;99.90
25342;DHT22;13298;48.792;9.154;2023-12-29T14:00:37;11.20;99.90
25342;DHT22;13298;48.792;9.154;2023-12-29T14:03:22;11.20;99.90
25342;DHT22;13298;48.792;9.154;2023-12-29T14:05:55;11.20;99.90
25342;DHT22;13298;48.792;9.154;2023-12-29T14:08:44;11.20;99.90
25342;DHT22;13298;48.792;9.154;2023-12-29T14:11:10;11.20;99.90
25342;DHT22;13298;48.792;9.154;2023-12-29T14:13:43;11.20;99.90
25342;DHT22;13298;48.792;9.154;2023-12-29T14:16:09;11.20;99.90
25342;DHT22;13298;48.792;9.154;2023-12-29T14:18:52;11.10;99.90
25342;DHT22;13298;48.792;9.154;2023-12-29T14:26:34;11.00;99.90
25342;DHT22;13298;48.792;9.154;2023-12-29T14:31:32;11.00;99.90
25342;DHT22;13298;48.792;9.154;2023-12-29T14:34:00;10.90;99.90
25342;DHT22;13298;48.792;9.154;2023-12-29T14:36:26;10.90;99.90
25342;DHT22;13298;48.792;9.154;2023-12-29T14:38:52;10.90;99.90
25342;DHT22;13298;48.792;9.154;2023-12-29T14:41:18;10.80;99.90
25342;DHT22;13298;48.792;9.154;2023-12-29T14:43:43;10.80;99.90
25342;DHT22;13298;48.792;9.154;2023-12-29T14:46:09;10.80;99.90
25342;DHT22;13298;48.792;9.154;2023-12-29T14:48:35;10.80;99.90
25342;DHT22;13298;48.792;9.154;2023-12-29T14:51:01;10.80;99.90
25342;DHT22;13298;48.792;9.154;2023-12-29T14:53:28;10.80;99.90
25342;DHT22;13298;48.792;9.154;2023-12-29T14:55:53;10.80;99.90
25342;DHT22;13298;48.792;9.154;2023-12-29T14:58:19;10.80;99.90
25342;DHT22;13298;48.792;9.154;2023-12-29T15:00:45;10.80;99.90
25342;DHT22;13298;48.792;9.154;2023-12-29T15:03:14;10.70;99.90
25342;DHT22;13298;48.792;9.154;2023-12-29T15:05:41;10.60;99.90
25342;DHT22;13298;48.792;9.154;2023-12-29T15:08:06;10.60;99.90
25342;DHT22;13298;48.792;9.154;2023-12-29T15:10:34;10.60;99.90
25342;DHT22;13298;48.792;9.154;2023-12-29T15:12:59;10.50;99.90
25342;DHT22;13298;48.792;9.154;2023-12-29T15:15:25;10.40;99.90
25342;DHT22;13298;48.792;9.154;2023-12-29T15:17:51;10.30;99.90
25342;DHT22;13298;48.792;9.154;2023-12-29T15:20:17;10.30;99.90
25342;DHT22;13298;48.792;9.154;2023-12-29T15:22:42;10.20;99.90
25342;DHT22;13298;48.792;9.154;2023-12-29T15:25:09;10.10;99.90
25342;DHT22;13298;48.792;9.154;2023-12-29T15:27:34;10.00;99.90
25342;DHT22;13298;48.792;9.154;2023-12-29T15:30:00;10.00;99.90
25342;DHT22;13298;48.792;9.154;2023-12-29T15:32:26;10.00;99.90
25342;DHT22;13298;48.792;9.154;2023-12-29T15:34:52;10.00;99.90
25342;DHT22;13298;48.792;9.154;2023-12-29T15:37:17;10.00;99.90
25342;DHT22;13298;48.792;9.154;2023-12-29T15:39:45;10.00;99.90
25342;DHT22;13298;48.792;9.154;2023-12-29T15:42:11;10.00;99.90
25342;DHT22;13298;48.792;9.154;2023-12-29T15:44:37;10.00;99.90
25342;DHT22;13298;48.792;9.154;2023-12-29T15:47:02;9.90;99.90
25342;DHT22;13298;48.792;9.154;2023-12-29T15:49:28;10.00;99.90
25342;DHT22;13298;48.792;9.154;2023-12-29T15:51:54;10.00;99.90
25342;DHT22;13298;48.792;9.154;2023-12-29T15:54:20;10.00;99.90
25342;DHT22;13298;48.792;9.154;2023-12-29T15:56:45;10.00;99.90
25342;DHT22;13298;48.792;9.154;2023-12-29T15:59:11;9.90;99.90
25342;DHT22;13298;48.792;9.154;2023-12-29T16:01:37;9.90;99.90
25342;DHT22;13298;48.792;9.154;2023-12-29T16:04:02;9.90;99.90